Member area
Imprimable
Dinant, 02/10/2016, BEL - Trail de Saint Jacques de Compostelle en Province de Namur
List of reports > 13 km - Classement
Search: Page: [1]
224 Entries
 
Complains are not accepted anymore. Results are final.
Category
PosNrNameAgeNATLeagueTeamRealTimeTkmMoy.PlaceNameCity
1.41DENEFFE GUILLAUME33BEL1:00:481:00:484:41 12.831homNAMUR
2.56FACQ GREGORY40BEL1:06:411:06:415:08 11.702homWALHAIN
3.832VACCARELLA LUCKY29BEL1:07:271:07:275:12 11.573homEMBOURG
4.5BASTIN EMILIEN16BEL1:07:501:07:505:14 11.504homHEER
5.43DERVAUX PHILIPPE42BEL1:08:131:08:135:15 11.445homRIVIÈRE
6.833VAN BENEDEN XAVIER46BEL1:08:141:08:145:15 11.436homSPRIMONT
7.50DUBOIS TANGUY43BEL1:09:591:09:595:23 11.157homCINEY
8.926LEGRAND MAXIMEBEL1:10:451:10:455:27 11.028hom
9.70GRANJDEAN BENOIT48BEL1:11:101:11:105:29 10.969homPROFONDEVILLE
10.88FJOUNIAUX FRANÇOISE46BEL1:11:101:11:105:29 10.961damNAMUR
11.151TACK HUGO59BEL1:11:321:11:325:31 10.9010homSINT-NIKLAAS
12.174BAUMGARTNER DAVID41FRASCHAEFFLER1:11:551:11:555:32 10.8511homWALTENHEIM
13.834VAN LANDUYT CLEMENT24BEL1:12:551:12:555:37 10.7012homBEAURAING
14.13BRY OLIVIER26BEL1:12:591:12:595:37 10.6913homROBECHIES
15.911SERVOTTE BENOIT25BEL1:13:011:13:015:37 10.6814homWALCOURT
16.817MORIAME BENJAMIN34BEL1:13:441:13:445:41 10.5815homDAVE
17.166WIBRIN XAVIER34BEL1:14:431:14:435:45 10.4416homNEUFCHATEAU
18.171BADDA RACHID32FRASCHAEFFLER1:15:461:15:465:50 10.3017homBISCHWILLER
19.200JEWELL NATAM42BEL1:16:271:16:275:53 10.2018homCOLFONTAINE
20.846DEROCK JÉRÉMY31BEL1:16:341:16:345:54 10.1919homMOUSCRON
21.839ZINCK RALPH47FRASCHAEFFLER1:17:051:17:055:56 10.1220homSCHWEIGHOUSE SUR MODER
22.87JOUNIAUX CHRISTOPHE42BEL1:17:111:17:115:57 10.1121homSTAVE
23.803LALOYAUX XAVIER32BEL1:17:231:17:235:58 10.0822homGRAND-MANIL
24.158VANESSE HUGUES32BEL1:17:311:17:315:58 10.0623homACOSSE
25.828STEFFEN RAYMOND51FRASCHAEFFLER1:18:251:18:256:02 9.9524homOHLUNGEN
26.29FCOULON ALINE28BEL1:18:351:18:356:03 9.932damNIL SAINT VINCENT
27.98LIBEER CASSIAN25BEL1:19:591:19:596:10 9.7525homTILLY
28.195GRACZYK ADRIEN17BEL1:20:051:20:056:10 9.7426homBEAURAING
29.96LELARGE GUILLAUME43FRA1:20:161:20:166:11 9.7227homLILLE
30.72GUILMOT MATTHIEU24BEL1:20:211:20:216:11 9.7128homNAMUR
31.117NICOLAS QUENTIN28BEL1:20:481:20:486:13 9.6529homBLEHEN
32.121NYSSEN MARC35BEL1:21:181:21:186:16 9.5930homFLORIFFOUX
33.821RAMEAU STEPHEN41BEL1:21:191:21:196:16 9.5931homEUGIES
34.816MATHY BERTRAND32BEL1:21:461:21:466:18 9.5432homVELAINE
35.178FCLAEYS MARLEEN43BEL1:21:531:21:536:18 9.533damOVERIJSE
36.76HÉBETTE BERTO40BEL1:22:081:22:086:20 9.5033homCOURTISE
37.838WILLIAUME WILLIAM40BEL1:22:241:22:246:21 9.4734homEUGIES
38.805LANGHENDRIES FRANÇOIS32BEL1:22:301:22:306:21 9.4635homGESVES
39.120NOTEZ CLAUDE45BEL1:22:371:22:376:22 9.4436homTHY-LE-BAUDUIN
40.123PAPROCKI STÉPHANE38BEL1:23:221:23:226:25 9.3637homTEMPLOUX
41.155VAN DEN BULCKE STEVEN40BEL1:23:551:23:556:28 9.3038homBELSELE
42.182FDAFFE LAURIE27BEL1:23:561:23:566:28 9.294damBRUXELLES
43.60FFRIPPIAT JACQUELINE55BEL1:23:571:23:576:28 9.295damCINEY
44.144SIX THOMAS33BEL1:24:121:24:126:29 9.2739homANSEREMME
45.190DETRY BRUNO38BEL1:24:311:24:316:31 9.2340homLIGNIERES
46.30COULON CÉDRIC42BEL1:24:551:24:556:32 9.1941homCHASTRÈS
47.35DAUVISTER GILLES35BEL1:25:391:25:396:36 9.1142homWAVRE
48.164FVIROUX MYRIAM50BEL1:25:511:25:516:37 9.096damDINANT
49.193FLOYMONT OLIVIER50BEL1:26:071:26:076:38 9.0643homANDENNE
50.196FGRATHWOHL ANNE43FRASCHAEFFLER1:26:141:26:146:38 9.057damBRUMATH
51.168ALVAREZ XAVIER48FRASCHAEFFLER1:26:311:26:316:40 9.0244homKALTENHOUSE
52.927FHENRY VALERIEBEL1:26:541:26:546:42 8.988dam
53.928FHORLEZ CHRISTINE28BEL1:26:591:26:596:42 8.979dam
54.21CLONAN EMILIEN33FRA1:27:581:27:586:46 8.8745homFOY-NOTRE-DAME
55.131FPONSART ISABELLE46BEL1:28:001:28:006:47 8.8710damMAISONS-ALFORT
56.116NICOLAS ANTOINE22BEL1:28:011:28:016:47 8.8646homBLEHEN
57.34FDAFFE VALENTINE32BEL1:29:081:29:086:52 8.7511damHAMOIS
58.137ROMEDENNE FRANÇOIS39BEL1:29:101:29:106:52 8.7547homNATOYE
59.45DEWEZ LIONEL37BEL1:29:111:29:116:52 8.7548homEVERE
60.68FGOSSIAUX NATHALIE43BEL1:29:211:29:216:53 8.7312damDINANT
61.140SÉBASTIEN LAMBERT33BEL1:29:321:29:326:54 8.7149homNAMECHE
62.811LEMAÎTRE SÉBASTIEN38BEL1:29:511:29:516:55 8.6850homLIÈGE
63.105LURQUIN ARTHUR19BEL1:30:021:30:026:56 8.6651homJUMET
64.42DENIS GREGORY45BEL1:30:311:30:316:58 8.6252homCHERCQ
65.83FJANSSEN MICHÈLE52FRA1:30:321:30:326:58 8.6213damNAMUR
66.150STOCK JF46BEL1:30:391:30:396:59 8.6053homGESVES
67.80FHONDEQUIN ANNABELLE35BEL1:30:521:30:527:00 8.5814damYVOIR
68.192DUPUIS PASCAL48BEL1:31:161:31:167:02 8.5554homHALTINNE
69.197FHOLTZINGER TANIA36FRASCHAEFFLER1:31:181:31:187:02 8.5415damWALTENHEIM
70.167FWIJLAARS DANIELLE28NLD1:31:501:31:507:04 8.5016damEINDHOVEN
71.81FIVERGNEAU GAETANE48BEL1:31:511:31:517:04 8.4917damSAINT SERVAIS
72.74FHANOSSET SANDRINE28BEL1:32:061:32:067:06 8.4718damNEUFCHATEAU
73.104LURKIN GEOFFREY26BEL1:32:121:32:127:06 8.4655homRANCE
74.180COLOT LUDO40BEL1:32:291:32:297:07 8.4356homBIOUL
75.199JANTON STÉPHANE43BEL1:32:381:32:387:08 8.4257homDINANT
76.176FCHARLIER JULIE39BEL1:32:421:32:427:08 8.4219damDINANT
77.128FPIERARD VALERIE37BEL1:33:071:33:077:10 8.3820damMETTET
78.181FCOULON DELPHINE39BEL1:33:071:33:077:10 8.3821damGEMBLOUX
79.820PINGET CLÉMENT35FRA1:33:121:33:127:11 8.3758homGEMBLOUX
80.801FKHAWAJA NADIA34BEL1:33:141:33:147:11 8.3722damHOEILAART
81.33DAFFE PHILIPPE55BEL1:33:401:33:407:13 8.3359homCINEY
82.66FGILON ANNEE30BEL1:33:511:33:517:14 8.3123damFOREST
83.108FMANTELEERS LIESBETH47BEL1:34:421:34:427:18 8.2424damTILLER
84.162VASSALLE DAVID44FRA1:34:511:34:517:18 8.2260homAMIENS
85.92LACHAT ERIC41FRA1:34:531:34:537:18 8.2261homFOUILLOY
86.932TAYLOR JAMESBEL1:35:001:35:007:19 8.2162hom
87.173BAUDOIN GWENAEL33BEL1:35:111:35:117:20 8.1963homDORINNE
88.94LAMBOTTE FABRICE46BEL1:35:181:35:187:20 8.1864homPROFONDEVILLE
89.933FCALLENS EMMANUELLEBEL1:35:191:35:197:20 8.1825dam
90.929GREGOIRE JOANBEL1:36:001:36:007:24 8.1365hom
91.191FDEVILLE JULIE34BEL1:36:011:36:017:24 8.1226damACHÊNE
92.141FSERMON VERONIQUE47BEL1:36:031:36:037:24 8.1227damGESVES
93.52DUCULOT MAXIME12BEL1:36:131:36:137:25 8.1166homORP-LE-G
94.36DEBAISIEUX LAURENT48FRA1:36:171:36:177:25 8.1067homBULLY-LES-MINES
95.840STERK MANUEL31BEL1:36:191:36:197:25 8.1068hom
96.136FROBYNS MARIE-JULIE36BEL1:36:301:36:307:26 8.0828damWAREMME
97.99FLIBEER ISABAU27BEL1:37:141:37:147:29 8.0229damTILLY
98.46DOCK THIERRY47BEL1:37:261:37:267:30 8.0169homJAMBES
99.114FMINET JULIE26BEL1:37:301:37:307:30 8.0030damDAVE
100.63GELDERS ANTOINE18BEL1:37:461:37:467:32 7.9870homWEZEMBEEK-OPPEM
101.100FLIBEER MADELON25BEL1:38:001:38:007:33 7.9631damTILLY
102.122FPALM AURELIE35BEL1:38:011:38:017:33 7.9632damDURNAL
103.113MINET FREDDY63BEL1:38:211:38:217:34 7.9371homDENÉE
104.188FDE MEULEMEESTER HILDE37BEL1:38:471:38:477:36 7.9033damKORTRIJK
105.925FPIRAUX PASCALE45BEL1:39:021:39:027:38 7.8834damWELLIN
106.71GUÉRAN BENOIT26FRA1:40:091:40:097:43 7.7972homBRUXELLES
107.169FANCIAUX GÉRALDINE38BEL1:40:271:40:277:44 7.7735damGODINNE
108.28COSTENARO ROBERT61BEL1:40:591:40:597:47 7.7273homBONCELLES
109.2FARNOLD BRIGITTE57BEL1:41:001:41:007:47 7.7236damJAMBES
110.825FRONDEAUX GWENDOLYNE24BEL1:41:211:41:217:48 7.7037damGRUPONT
111.27FCORLIER JULIE37BEL1:41:241:41:247:48 7.6938damTEMPLOUX
112.82FJAMART NADINE57BEL1:41:521:41:527:51 7.6639damHERON
113.836FWANLIN ISABELLE45BEL1:42:021:42:027:51 7.6440damPLAINEVAUX
114.823FROBINET DOMINIQUE50BEL1:42:181:42:187:53 7.6341damLIBIN
115.31FCROMBEZ STÉPHANIE36BEL1:42:291:42:297:53 7.6142damSUARLEE
116.12FBRODKOM NATHALIE46BEL1:42:451:42:457:55 7.5943damHAUT-ITTRE
117.808LAVAL ARNAUD39BEL1:43:051:43:057:56 7.5774homCIPLET
118.813FLUX MONIQUE63FRASCHAEFFLER1:43:311:43:317:58 7.5444damHAGUENAU
119.145FSOMVILLE EVELYNE37BEL1:43:311:43:317:58 7.5445damHAVRENNE
120.62FGASPARD ANNE56BEL1:43:391:43:397:59 7.5346damJAMBES
121.163FVERHELST MARJORIE29BEL1:44:281:44:288:03 7.4747damMESNIL SAINT PLAISE
122.135FREYSER NANCY43BEL1:44:291:44:298:03 7.4748damBIOUL
123.20FCLEMMENS JENNIFER32BEL1:44:381:44:388:03 7.4549damFLORIFFOUX
124.14FBURNOTTE DOMINIQUE57BEL1:44:411:44:418:04 7.4550damJAMBES
125.842FDUFOUR MARIE-PIERRE48BEL1:45:031:45:038:05 7.4351dam
126.8FBLOT NATHALIE43FRA1:45:031:45:038:05 7.4352damFOUILLOY
127.161FVASSALLE CHRISTEL44FRA1:45:041:45:048:05 7.4253damAMIENS
128.32FCRUSPIN ROSELYNE55BEL1:45:051:45:058:05 7.4254damDAVE
129.827FSOENTJENS VALÉRIE43BELLES AMIS DE SŒU1:45:301:45:308:07 7.3955damWAVRE
130.184FDEGROOTE MARIE LINE60BEL1:45:411:45:418:08 7.3856damFRAMERIES
131.824ROGER PAUL26FRA1:45:421:45:428:08 7.3875homBRUXELLES
132.109FMARCHAL JESSICA37BEL1:45:531:45:538:09 7.3757damMALONNE
133.146FSOMVILLE SYLVIE34BEL1:46:021:46:028:10 7.3658damBRUXELLES
134.172FBAUDOIN DAPHNE35BEL1:46:141:46:148:11 7.3459damLISOGNE
135.139FSANTIAGO MARIA42ESP1:46:531:46:538:14 7.3060damBRUXELLES
136.138FRUELLE-DIEU FABIENNE49BEL1:47:001:47:008:14 7.2961damPROFONDEVILLE
137.90KELDERMANS STEPHANE48BEL1:47:381:47:388:17 7.2576homVEDRIN
138.807LAUNE JEAN-MARC59BEL1:47:401:47:408:17 7.2577homFRAMERIES
139.86FJOASSIN CAROLINE34BEL1:47:561:47:568:19 7.2362damMALONNE
140.924LAMY THIERRY53BEL1:48:251:48:258:21 7.2078homWELLIN
141.814FMARIE EMERALDA29BEL1:48:461:48:468:22 7.1763damPÉRUWELZ
142.79FHIEL LUCIE36BEL1:48:461:48:468:22 7.1764damTEMPLOUX
143.850ROLAND PIERRE-HENRI33BEL1:48:551:48:558:23 7.1679hom
144.17FCHABOT AGATHE32FRA1:49:071:49:078:24 7.1565damJONCRET
145.931BAUFAY GIL36BEL1:49:141:49:148:25 7.1480homJONCRET
146.64GELDERS PHILIPPE53BEL1:49:161:49:168:25 7.1481homWEZEMBEEK-OPPEM
147.194FGLOIRE LAURE46BEL1:49:311:49:318:26 7.1266damEREZEE
148.40FDEMEFFE CAROLINE38BEL1:50:011:50:018:28 7.0967damMALONNE
149.1ABELS BERTRAND44BEL1:50:021:50:028:28 7.0982homSPY
150.106LURQUIN BENOIT53BEL1:50:081:50:088:29 7.0883homJUMET
151.84FJANSSEN PAULINE24FRA1:50:311:50:318:31 7.0668damNAMUR
152.85JANSSEN YVES53FRA1:50:321:50:328:31 7.0684homNAMUR
153.189FDE ROP MICHÈLE55BELLES AMIS DE SŒU1:50:341:50:348:31 7.0669damGREZ
154.849FMÉLANIE ADAM33BEL1:50:371:50:378:31 7.0570dam
155.802LAHAYE PHILIPPE52BELLES AMIS DE SŒU1:50:381:50:388:31 7.0585homGREZ
156.78FHENROTTE FRANCE43BEL1:50:451:50:458:32 7.0471damYVOIR
157.39FDEMARCHE FRANÇOISE54BEL1:51:031:51:038:33 7.0272damYVOIR
158.930FTUMERELLE AURELIE39BEL1:51:101:51:108:34 7.0273damBRAIBANT
159.837FWERTS SANDRINE40BELLES AMIS DE SŒU1:51:211:51:218:34 7.0174damWAVRE
160.6FBEAUCLAIRE VALÉRIE46BEL1:51:501:51:508:37 6.9875damSTAVE
161.15FCAERTS KARINA58BEL1:52:081:52:088:38 6.9676damBIERBEEK
162.37FDECAUX BARBARA37BEL1:52:091:52:098:38 6.9677damDINANT
163.179FCOLLEAUX SABRINA43BEL1:53:111:53:118:43 6.8978damDINANT
164.826FROUSSEAU EMMANNUELLE39BEL1:53:171:53:178:43 6.8979damDINANT
165.73HACHEZ ERIC50BEL1:53:191:53:198:43 6.8886homSTRÉPY-BRACQUGNIES
166.819FPETKOVIC LEPA35BEL1:53:301:53:308:44 6.8780damBRUXELLES
167.93FLACROIX MARIE-AGNES50BEL1:53:311:53:318:44 6.8781damSART-BERNARD
168.110FMARCHOT DELPHINE36BEL1:54:191:54:198:48 6.8282damPROFONDEVILLE
169.125PEDROTTI LAURENT40FRA1:54:241:54:248:48 6.8287homCINEY
170.132FRAQUEZ PERRINE35BEL1:54:451:54:458:50 6.8083damRIENNE
171.24FCOLLIER LOUISE29BEL1:54:471:54:478:50 6.8084damBRUXELLES
172.11FBRIERS PIERRE28BEL1:54:481:54:488:50 6.8085damPOUSSET
173.818FPETKOVIC ELIZABET35BEL1:54:501:54:508:50 6.7986damUCCLE
174.22FCNOCKAERT GAETANE27BEL1:55:091:55:098:52 6.7787damSAINT-GERARD
175.157VANDER WALLE JONATHAN26BEL1:55:101:55:108:52 6.7788homBRAINE L'ALLEUD
176.18FCHAUDIER ANNE-SOPHIE33BEL1:55:241:55:248:53 6.7688damBIOUL
177.812FLINCÉ ISABELLE45BEL1:55:351:55:358:54 6.7589damMETTET
178.187FDELHASSE JULIE30BEL1:55:441:55:448:55 6.7490damHACCOURT
179.19FCHRISTOPHE FABIENNE51BEL1:56:021:56:028:56 6.7291damSAINT SERVAIS
180.152TERESI HENRI52BEL1:56:021:56:028:56 6.7289homBIOUL
181.127PERA FRANÇOIS30BEL1:56:041:56:048:56 6.7290homSAINT-MARC
182.154FVAN AELST DELPHINE29BEL1:56:081:56:088:56 6.7292damSAINT-MARC
183.95FLEGER CAROLE42BEL1:56:211:56:218:57 6.7093damSENEFFE
184.130PINOY FABIAN46BEL1:56:221:56:228:58 6.7091homSENEFFE
185.69FGOTTRANT FABIENNE52FRA1:56:301:56:308:58 6.7094damFARBUS
186.48FDOREY CHRYSTELLE46FRA1:56:311:56:318:58 6.6995damLIEVIN
187.133RECOLET ERIC54FRA1:56:311:56:318:58 6.6992homSECLIN
188.26CORBIAUX CHRISTOPHE37BEL1:56:441:56:448:59 6.6893homBOIS-DE-VILLERS
189.89JULEMONT CHRISTOPHE46BEL1:56:581:56:589:00 6.6794homNAMUR
190.829FTHIRION STÉPHANIE37BEL1:57:141:57:149:02 6.6596damBRUSSELS
191.143FSERVELLON CLAUDIA45BEL1:57:511:57:519:04 6.6297damTIENEN
192.53FDUMEUNIER CHANTAL67BEL1:58:071:58:079:06 6.6098damHOTTON
193.177FCHAROT FRANCE37BEL1:58:371:58:379:08 6.5899damSAINT-SÉVERIN
194.186FDELENS ANNE37BEL1:58:381:58:389:08 6.58100damLIÈGE
195.25CORBIAUX BENJAMIN31BEL1:59:251:59:259:12 6.5395homBOIS-DE-VILLERS
196.129FPILLOY ISABELLE49BEL2:00:452:00:459:18 6.46101damSAINT-MARC
197.54FDUMONT CATHERINE46BEL2:00:452:00:459:18 6.46102damAMAY
198.23FCNOCKAERT GWENAELLE31BEL2:01:282:01:289:21 6.42103damSAINT-GERARD
199.102FLORIERS STEPHANIE39BEL2:02:362:02:369:26 6.36104damDINANT
200.4FBAILLIEUX MAGALI38BEL2:03:552:03:559:32 6.29105damBIOUL
201.47FDONY FREDERIQUE53BEL2:04:232:04:239:35 6.27106damBRUXELLES
202.119FNOËL CHRISTELLE38BEL2:04:462:04:469:36 6.25107damBIOUL
203.848FLAPY THÉRÈSE31BEL2:07:332:07:339:49 6.12108damAUVELAIS
204.830FTHIRY VIOLAINE31BEL2:07:462:07:469:50 6.10109damDAVE
205.101FLOMBET ESTELLE42BEL2:07:512:07:519:51 6.10110damBIOUL
206.134FREDOUTE BENEDICTE43BEL2:08:182:08:189:53 6.08111damJAUCHE
207.10FBRASSEUR SANDRINE50BEL2:10:042:10:0410:01 6.00112damVEDRIN
208.7FBERTRAND CAROLINE37BEL2:10:052:10:0510:01 6.00113damDINANT
209.55ESPREUX SEBASTIEN38BEL2:11:512:11:5110:09 5.9296homROCROI
210.810FLEMAHIEU CAROLINE30BEL2:15:222:15:2210:25 5.76114damBRUXELLES
211.170ARNOULD NICOLAS29BEL2:15:232:15:2310:25 5.7697homBRUXELLES
212.38FSTAS CHANTAL37BEL2:16:432:16:4310:31 5.71115damGENAPPE
213.59FFRANKEN CLAUDINE60BEL2:16:442:16:4410:32 5.71116damEVREHAILLES
214.165VOLKAERT VINCENT45BEL2:20:262:20:2610:49 5.5598homGOZÉE
215.804LAMBERT JEROME G39BEL2:22:452:22:4510:59 5.4699homVEDRIN
216.58FFILÉE VÉRONIQUE53BEL2:22:462:22:4610:59 5.46117damBELGRADE
217.16FCARLIER VIRGINIE43BEL2:24:442:24:4411:08 5.39118damBIESME
218.107FMALCHAIR ANNE38BEL2:24:472:24:4711:09 5.39119damMETTET
219.77FHENNARD MARIE-CHRISITNE62BEL2:37:072:37:0712:06 4.96120damMALONNE
220.124FPAULY A31BEL3:17:403:17:4015:13 3.95121damBRUXELLES
221.806FLARUMBE ALBISU ELENA26ESP3:17:403:17:4015:13 3.95122damBRUSSELS
DSQ847GRÉGOIRE JOAN46BEL1:01:371:01:37homNAMUR
DNF44FDESQUESNES FLORENCE40BELdamFLAWINNE
DNF922VIS GASPARDBELhom
DNF: did not finish; DSQ: disqualified; Speed in km/h
Page: [1]